Time;durP1;ratioP1;P1;durP2;ratioP2;P2;SDS_P1;SDS_P2;PMS_P1;PMS_P2;Temp;Humidity;BMP_temperature;BMP_pressure;BME280_temperature;BME280_humidity;BME280_pressure;Samples;Min_cycle;Max_cycle;Signal;HPM_P1;HPM_P2
2023/09/04 00:02:14;;;;;;;2.45;1.50;;;16.60;99.90;;;;;;2586302;54;20899;31
2023/09/04 00:04:51;;;;;;;2.30;1.20;;;16.60;99.90;;;;;;2586350;54;20779;31
2023/09/04 00:07:27;;;;;;;2.67;1.20;;;16.50;99.90;;;;;;2604166;46;20908;31
2023/09/04 00:10:00;;;;;;;2.20;1.30;;;16.50;99.90;;;;;;2585983;54;20813;31
2023/09/04 00:12:34;;;;;;;1.77;1.20;;;16.50;99.90;;;;;;2585943;54;20038;31
2023/09/04 00:15:10;;;;;;;2.95;1.00;;;16.50;99.90;;;;;;2604460;46;20250;31
2023/09/04 00:17:44;;;;;;;3.75;1.05;;;16.50;99.90;;;;;;2585328;54;22584;31
2023/09/04 00:20:21;;;;;;;2.40;1.30;;;16.50;99.90;;;;;;2586049;54;20739;31
2023/09/04 00:22:56;;;;;;;3.08;1.40;;;16.50;99.90;;;;;;2586036;54;20916;31
2023/09/04 00:25:30;;;;;;;3.97;1.50;;;16.50;99.90;;;;;;2586156;54;20043;31
2023/09/04 00:28:06;;;;;;;2.47;1.15;;;16.50;99.90;;;;;;2586058;54;20022;31
2023/09/04 00:30:40;;;;;;;2.90;1.40;;;16.50;99.90;;;;;;2585300;54;20037;31
2023/09/04 00:33:14;;;;;;;2.85;0.90;;;16.40;99.90;;;;;;2604261;46;21143;31
2023/09/04 00:35:49;;;;;;;2.83;1.17;;;16.40;99.90;;;;;;2586108;54;20058;31
2023/09/04 00:38:25;;;;;;;2.42;1.30;;;16.40;99.90;;;;;;2585207;54;20101;31
2023/09/04 00:40:58;;;;;;;1.97;1.10;;;16.40;99.90;;;;;;2585932;54;20867;31
2023/09/04 00:43:37;;;;;;;2.50;1.20;;;16.40;99.90;;;;;;2586073;54;21268;31
2023/09/04 00:46:13;;;;;;;1.77;1.30;;;16.40;99.90;;;;;;2604428;46;20966;31
2023/09/04 00:48:45;;;;;;;1.17;0.73;;;16.40;99.90;;;;;;2586098;54;20129;31
2023/09/04 00:51:24;;;;;;;2.60;1.20;;;16.40;99.90;;;;;;2585824;54;20146;31
2023/09/04 00:53:57;;;;;;;2.05;1.17;;;16.40;99.90;;;;;;2585133;54;20084;31
2023/09/04 00:56:30;;;;;;;3.55;1.05;;;16.40;99.90;;;;;;2604552;46;20974;31
2023/09/04 00:59:04;;;;;;;1.60;1.10;;;16.40;99.90;;;;;;2585230;54;20876;31
2023/09/04 01:01:41;;;;;;;3.25;1.05;;;16.40;99.90;;;;;;2603893;46;20027;31
2023/09/04 01:04:15;;;;;;;1.90;1.13;;;16.40;99.90;;;;;;2586094;54;20913;31
2023/09/04 01:07:01;;;;;;;4.30;1.10;;;16.40;99.90;;;;;;2585968;54;20097;31
2023/09/04 01:09:36;;;;;;;3.97;1.57;;;16.30;99.90;;;;;;2585774;54;20822;31
2023/09/04 01:12:12;;;;;;;2.42;1.17;;;16.30;99.90;;;;;;2604515;46;20878;31
2023/09/04 01:14:46;;;;;;;1.73;0.95;;;16.30;99.90;;;;;;2585828;54;20022;31
2023/09/04 01:17:18;;;;;;;4.13;1.40;;;16.30;99.90;;;;;;2600966;46;20030;31
2023/09/04 01:19:55;;;;;;;1.93;1.37;;;16.30;99.90;;;;;;2682692;39;20415;31
2023/09/04 01:22:33;;;;;;;1.88;0.93;;;16.20;99.90;;;;;;2586102;54;20253;31
2023/09/04 01:25:07;;;;;;;1.92;1.10;;;16.20;99.90;;;;;;2604453;46;20026;31
2023/09/04 01:27:41;;;;;;;2.15;1.35;;;16.20;99.90;;;;;;2585761;54;20838;31
2023/09/04 01:30:15;;;;;;;1.60;0.88;;;16.10;99.90;;;;;;2585561;54;20844;31
2023/09/04 01:32:57;;;;;;;2.23;1.40;;;16.10;99.90;;;;;;2585993;54;20029;31
2023/09/04 01:35:32;;;;;;;2.63;1.30;;;16.00;99.90;;;;;;2585907;54;20026;31
2023/09/04 01:38:14;;;;;;;2.10;1.20;;;15.90;99.90;;;;;;2584865;54;20970;31
2023/09/04 01:40:53;;;;;;;2.30;1.10;;;15.90;99.90;;;;;;2584857;54;20947;31
2023/09/04 01:43:29;;;;;;;2.95;1.15;;;15.90;99.90;;;;;;2584906;54;20772;31
2023/09/04 01:46:01;;;;;;;3.63;1.10;;;15.80;99.90;;;;;;2585885;54;20038;31
2023/09/04 01:48:38;;;;;;;2.60;1.30;;;15.80;99.90;;;;;;2584798;54;20883;31
2023/09/04 01:51:11;;;;;;;2.58;1.30;;;15.70;99.90;;;;;;2586487;54;20934;31
2023/09/04 01:53:47;;;;;;;2.87;1.17;;;15.70;99.90;;;;;;2586626;54;20026;31
2023/09/04 01:56:19;;;;;;;5.47;1.52;;;15.60;99.90;;;;;;2605111;46;20050;31
2023/09/04 01:58:56;;;;;;;2.75;1.27;;;15.50;99.90;;;;;;2586429;54;20034;31
2023/09/04 02:01:32;;;;;;;3.20;1.40;;;15.50;99.90;;;;;;2585644;54;20539;31
2023/09/04 02:04:09;;;;;;;4.28;1.35;;;15.40;99.90;;;;;;2605222;46;20940;31
2023/09/04 02:06:45;;;;;;;2.45;0.90;;;15.40;99.90;;;;;;2585650;54;20022;31
2023/09/04 02:09:21;;;;;;;;;;;15.30;99.90;;;;;;2605040;46;20052;31
2023/09/04 02:11:54;;;;;;;2.40;1.40;;;15.30;99.90;;;;;;2585663;54;20742;31
2023/09/04 02:14:28;;;;;;;2.15;1.40;;;15.20;99.90;;;;;;2605217;46;20941;31
2023/09/04 02:17:05;;;;;;;3.70;1.30;;;15.20;99.90;;;;;;2585744;54;20041;31
2023/09/04 02:19:40;;;;;;;1.95;1.10;;;15.20;99.90;;;;;;2586437;54;20885;31
2023/09/04 02:22:15;;;;;;;2.53;1.50;;;15.20;99.90;;;;;;2586344;54;20027;31
2023/09/04 02:24:50;;;;;;;4.60;1.60;;;15.20;99.90;;;;;;2586578;54;20057;31
2023/09/04 02:27:28;;;;;;;2.38;1.33;;;15.10;99.90;;;;;;2585548;54;20879;31
2023/09/04 02:30:07;;;;;;;3.25;1.20;;;15.10;99.90;;;;;;2585966;54;21351;31
2023/09/04 02:32:41;;;;;;;3.50;1.30;;;15.10;99.90;;;;;;2604686;46;21449;31
2023/09/04 02:35:15;;;;;;;2.97;1.20;;;15.10;99.90;;;;;;2586736;54;20068;31
2023/09/04 02:37:49;;;;;;;2.30;1.30;;;15.10;99.90;;;;;;2586409;54;20026;31
2023/09/04 02:40:22;;;;;;;2.05;1.45;;;15.00;99.90;;;;;;2604961;46;20949;31
2023/09/04 02:43:03;;;;;;;2.60;1.30;;;15.00;99.90;;;;;;2586071;54;20827;31
2023/09/04 02:45:39;;;;;;;1.27;0.80;;;14.90;99.90;;;;;;2586180;54;20023;31
2023/09/04 02:48:13;;;;;;;2.65;1.60;;;14.90;99.90;;;;;;2586534;54;21309;31
2023/09/04 02:50:46;;;;;;;2.35;0.90;;;14.90;99.90;;;;;;2586318;54;20113;31
2023/09/04 02:53:26;;;;;;;4.00;1.25;;;14.90;99.90;;;;;;2684132;39;20415;31
2023/09/04 02:56:01;;;;;;;2.95;1.25;;;14.90;99.90;;;;;;2605115;46;19934;31
2023/09/04 02:58:37;;;;;;;8.05;1.77;;;14.80;99.90;;;;;;2586608;54;20030;31
2023/09/04 03:01:13;;;;;;;2.50;1.10;;;14.80;99.90;;;;;;2585146;54;21023;31
2023/09/04 03:03:49;;;;;;;2.00;1.20;;;14.80;99.90;;;;;;2586281;54;20037;31
2023/09/04 03:06:25;;;;;;;3.15;1.38;;;14.70;99.90;;;;;;2586435;54;20857;31
2023/09/04 03:08:59;;;;;;;;;;;14.70;99.90;;;;;;2585525;54;20030;31
2023/09/04 03:11:32;;;;;;;3.15;1.20;;;14.70;99.90;;;;;;2684222;39;20308;31
2023/09/04 03:14:11;;;;;;;2.35;1.00;;;14.60;99.90;;;;;;2604119;46;20892;31
2023/09/04 03:16:46;;;;;;;2.47;1.50;;;14.50;99.90;;;;;;2683363;39;22621;31
2023/09/04 03:19:19;;;;;;;1.60;1.00;;;14.50;99.90;;;;;;2684079;39;20389;31
2023/09/04 03:21:54;;;;;;;3.20;1.20;;;14.50;99.90;;;;;;2586057;54;21005;31
2023/09/04 03:24:27;;;;;;;4.35;1.45;;;14.60;99.90;;;;;;2586031;54;20093;31
2023/09/04 03:27:01;;;;;;;2.85;0.85;;;14.50;99.90;;;;;;2586274;54;20767;31
2023/09/04 03:29:37;;;;;;;2.90;1.45;;;14.60;99.90;;;;;;2586406;54;20928;31
2023/09/04 03:32:12;;;;;;;2.65;1.58;;;14.60;99.90;;;;;;2604498;46;20051;31
2023/09/04 03:34:47;;;;;;;1.33;0.90;;;14.60;99.90;;;;;;2585381;54;20858;31
2023/09/04 03:37:21;;;;;;;;;;;14.60;99.90;;;;;;2586499;54;20741;31
2023/09/04 03:39:57;;;;;;;4.22;1.42;;;14.50;99.90;;;;;;2585411;54;20757;31
2023/09/04 03:42:32;;;;;;;1.90;1.50;;;14.60;99.90;;;;;;2586110;54;19995;31
2023/09/04 03:45:13;;;;;;;2.17;1.50;;;14.60;99.90;;;;;;2585198;54;20057;31
2023/09/04 03:47:49;;;;;;;4.60;1.48;;;14.50;99.90;;;;;;2585337;54;20737;31
2023/09/04 03:50:22;;;;;;;2.30;1.70;;;14.50;99.90;;;;;;2586272;54;20036;31
2023/09/04 03:52:58;;;;;;;5.57;1.60;;;14.50;99.90;;;;;;2586283;54;20254;31
2023/09/04 03:55:32;;;;;;;1.40;0.90;;;14.60;99.90;;;;;;2586426;54;20730;31
2023/09/04 03:58:10;;;;;;;2.17;1.13;;;14.60;99.90;;;;;;2585268;54;20026;31
2023/09/04 04:00:52;;;;;;;2.73;1.03;;;14.60;99.90;;;;;;2585194;54;20061;31
2023/09/04 04:03:27;;;;;;;3.28;1.38;;;14.60;99.90;;;;;;2586054;54;20991;31
2023/09/04 04:06:00;;;;;;;2.38;1.60;;;14.70;99.90;;;;;;2604718;46;20033;31
2023/09/04 04:08:36;;;;;;;4.53;1.87;;;14.60;99.90;;;;;;2604604;46;20049;31
2023/09/04 04:11:10;;;;;;;2.10;1.65;;;14.60;99.90;;;;;;2586075;54;20034;31
2023/09/04 04:13:48;;;;;;;3.40;1.70;;;14.60;99.90;;;;;;2586095;54;20743;31
2023/09/04 04:16:26;;;;;;;3.85;2.17;;;14.60;99.90;;;;;;2604539;46;20030;31
2023/09/04 04:18:58;;;;;;;2.60;1.90;;;14.70;99.90;;;;;;2604584;46;20031;31
2023/09/04 04:21:31;;;;;;;2.95;1.90;;;14.70;99.90;;;;;;2586246;54;20027;31
2023/09/04 04:24:07;;;;;;;5.03;2.13;;;14.60;99.90;;;;;;2603092;46;20656;31
2023/09/04 04:26:43;;;;;;;3.25;2.17;;;14.70;99.90;;;;;;2586121;54;20872;31
2023/09/04 04:29:19;;;;;;;3.33;2.08;;;14.70;99.90;;;;;;2585913;54;20022;31
2023/09/04 04:32:00;;;;;;;4.93;1.85;;;14.70;99.90;;;;;;2604441;46;20758;31
2023/09/04 04:34:34;;;;;;;3.00;2.00;;;14.70;99.90;;;;;;2586134;54;20027;31
2023/09/04 04:37:12;;;;;;;2.63;2.07;;;14.70;99.90;;;;;;2585987;54;20774;31
2023/09/04 04:39:47;;;;;;;3.40;2.30;;;14.80;99.90;;;;;;2591171;46;20959;31
2023/09/04 04:42:26;;;;;;;4.00;2.20;;;14.80;99.90;;;;;;2586025;54;20237;31
2023/09/04 04:45:03;;;;;;;4.55;2.60;;;14.80;99.90;;;;;;2589146;46;20806;31
2023/09/04 04:47:40;;;;;;;4.38;1.65;;;14.90;99.90;;;;;;2585237;54;20069;31
2023/09/04 04:50:14;;;;;;;3.63;2.03;;;14.90;99.90;;;;;;2586027;54;20026;31
2023/09/04 04:52:51;;;;;;;4.15;2.05;;;14.90;99.90;;;;;;2585195;54;20231;31
2023/09/04 04:55:25;;;;;;;3.08;1.83;;;14.90;99.90;;;;;;2585980;54;20749;31
2023/09/04 04:58:00;;;;;;;4.50;2.17;;;14.90;99.90;;;;;;2585296;54;20034;31
2023/09/04 05:00:38;;;;;;;3.80;1.80;;;15.00;99.90;;;;;;2585887;54;20925;31
2023/09/04 05:03:17;;;;;;;2.60;1.87;;;14.90;99.90;;;;;;2585683;54;20026;31
2023/09/04 05:05:50;;;;;;;5.60;2.30;;;15.00;99.90;;;;;;2586119;54;21248;31
2023/09/04 05:08:25;;;;;;;3.38;2.03;;;15.00;99.90;;;;;;2585873;54;20775;31
2023/09/04 05:11:04;;;;;;;2.53;1.63;;;15.00;99.90;;;;;;2585029;54;20123;31
2023/09/04 05:13:46;;;;;;;8.20;2.50;;;15.10;99.90;;;;;;2585780;54;20077;31
2023/09/04 05:16:19;;;;;;;3.65;2.10;;;15.10;99.90;;;;;;2585785;54;21036;31
2023/09/04 05:18:58;;;;;;;2.65;1.80;;;15.20;99.90;;;;;;2586074;54;20049;31
2023/09/04 05:21:36;;;;;;;3.90;2.40;;;15.20;99.90;;;;;;2585765;54;20774;31
2023/09/04 05:24:24;;;;;;;3.28;1.90;;;15.30;99.90;;;;;;2585268;54;20038;31
2023/09/04 05:27:02;;;;;;;7.17;1.97;;;15.40;99.90;;;;;;2584914;54;20027;31
2023/09/04 05:29:35;;;;;;;4.23;1.90;;;15.40;99.90;;;;;;2585709;54;20345;31
2023/09/04 05:32:11;;;;;;;6.47;2.70;;;15.50;99.90;;;;;;2585138;54;20261;31
2023/09/04 05:34:46;;;;;;;;;;;15.60;99.90;;;;;;2586067;54;20331;31
2023/09/04 05:37:24;;;;;;;5.68;2.25;;;15.60;99.90;;;;;;2682938;39;22315;31
2023/09/04 05:40:03;;;;;;;3.30;2.10;;;15.70;99.90;;;;;;2585639;54;20210;31
2023/09/04 05:42:41;;;;;;;5.20;2.50;;;15.80;99.90;;;;;;2604221;46;20870;31
2023/09/04 05:45:19;;;;;;;8.75;2.15;;;15.90;99.90;;;;;;2585033;54;20890;31
2023/09/04 05:47:55;;;;;;;3.30;2.40;;;16.00;99.90;;;;;;2604248;47;20123;31
2023/09/04 05:50:33;;;;;;;4.05;2.03;;;16.10;99.90;;;;;;2585880;54;20043;31
2023/09/04 05:53:12;;;;;;;2.30;1.70;;;16.20;99.90;;;;;;2585813;54;20873;31
2023/09/04 05:55:48;;;;;;;10.25;2.28;;;16.30;99.90;;;;;;2585839;54;20970;31
2023/09/04 05:58:24;;;;;;;12.27;2.63;;;16.50;99.90;;;;;;2604119;47;20126;31
2023/09/04 06:01:00;;;;;;;;;;;16.80;99.90;;;;;;2586018;54;20030;31
2023/09/04 06:03:39;;;;;;;4.47;1.98;;;17.00;99.90;;;;;;2585432;54;19934;31
2023/09/04 06:06:19;;;;;;;3.50;2.30;;;17.30;99.90;;;;;;2753823;31;22412;31
2023/09/04 06:08:51;;;;;;;3.23;2.33;;;17.40;99.90;;;;;;2584982;54;20030;31
2023/09/04 06:11:30;;;;;;;4.30;2.45;;;17.50;99.90;;;;;;2585781;54;20365;31
2023/09/04 06:14:05;;;;;;;3.27;2.00;;;17.70;99.90;;;;;;2585967;54;20829;31
2023/09/04 06:16:41;;;;;;;4.30;2.00;;;17.80;99.90;;;;;;2584816;54;21016;31
2023/09/04 06:19:19;;;;;;;4.30;1.85;;;18.00;99.90;;;;;;2585463;54;20911;31
2023/09/04 06:21:57;;;;;;;2.65;1.75;;;18.20;99.90;;;;;;2584803;54;20883;31
2023/09/04 06:24:32;;;;;;;3.80;1.70;;;18.30;99.90;;;;;;2585521;54;20112;31
2023/09/04 06:27:05;;;;;;;2.63;1.50;;;18.50;99.90;;;;;;2585344;54;20027;31
2023/09/04 06:29:38;;;;;;;2.70;1.40;;;18.90;99.90;;;;;;2585565;54;20896;31
2023/09/04 06:32:14;;;;;;;1.90;1.10;;;19.10;99.90;;;;;;2585554;54;20030;31
2023/09/04 06:34:50;;;;;;;4.17;1.43;;;19.20;99.90;;;;;;2584707;54;20057;31
2023/09/04 06:37:25;;;;;;;;;;;19.40;99.90;;;;;;2605195;46;20946;31
2023/09/04 06:40:02;;;;;;;3.43;1.53;;;19.50;99.90;;;;;;2586364;54;20687;31
2023/09/04 06:42:40;;;;;;;3.10;1.25;;;19.60;99.90;;;;;;2765446;31;22490;31
2023/09/04 06:45:16;;;;;;;3.35;1.70;;;19.60;99.90;;;;;;2604775;46;20947;31
2023/09/04 06:47:52;;;;;;;1.98;1.42;;;19.60;99.90;;;;;;2605216;46;20064;31
2023/09/04 06:50:29;;;;;;;4.80;1.30;;;19.60;99.90;;;;;;2586516;54;20767;31
2023/09/04 06:53:07;;;;;;;2.60;1.20;;;19.60;99.90;;;;;;2604716;46;20026;31
2023/09/04 06:55:40;;;;;;;1.95;0.80;;;19.60;99.90;;;;;;2585961;54;20057;31
2023/09/04 06:58:14;;;;;;;5.05;1.02;;;19.70;99.90;;;;;;2604813;46;20865;31
2023/09/04 07:00:53;;;;;;;4.10;1.30;;;19.90;99.90;;;;;;2586449;54;20037;31
2023/09/04 07:03:34;;;;;;;1.67;0.90;;;20.10;99.90;;;;;;2586560;54;20033;31
2023/09/04 07:06:10;;;;;;;3.20;1.10;;;20.20;99.90;;;;;;2585460;54;20881;31
2023/09/04 07:08:50;;;;;;;2.25;0.90;;;20.20;99.90;;;;;;2586173;54;20037;31
2023/09/04 07:11:26;;;;;;;2.30;0.98;;;20.20;99.90;;;;;;2586321;54;20113;31
2023/09/04 07:14:05;;;;;;;2.38;0.98;;;20.20;99.90;;;;;;2586467;54;21033;31
2023/09/04 07:16:38;;;;;;;4.95;1.25;;;20.20;99.90;;;;;;2586429;54;20026;31
2023/09/04 07:19:30;;;;;;;3.57;1.17;;;20.20;99.90;;;;;;2586120;54;20038;31
2023/09/04 07:22:05;;;;;;;4.20;1.08;;;20.20;99.90;;;;;;2585529;54;20852;31
2023/09/04 07:24:46;;;;;;;5.13;1.33;;;20.20;99.90;;;;;;2585226;54;20950;31
2023/09/04 07:27:24;;;;;;;2.25;1.25;;;20.10;99.90;;;;;;2586159;54;20891;31
2023/09/04 07:29:58;;;;;;;2.37;0.90;;;20.10;99.90;;;;;;2585318;54;20101;31
2023/09/04 07:32:34;;;;;;;3.13;1.60;;;20.20;99.90;;;;;;2586460;54;21232;31
2023/09/04 07:35:13;;;;;;;2.50;0.80;;;20.20;99.90;;;;;;2586206;54;20027;31
2023/09/04 07:37:47;;;;;;;3.15;1.40;;;20.10;99.90;;;;;;2586144;54;20069;31
2023/09/04 07:40:25;;;;;;;3.25;1.23;;;20.20;99.90;;;;;;2586062;54;20770;31
2023/09/04 07:43:01;;;;;;;2.10;1.20;;;20.20;99.90;;;;;;2586324;54;20027;31
2023/09/04 07:45:38;;;;;;;1.53;1.07;;;20.30;99.90;;;;;;2604878;46;20747;31
2023/09/04 07:48:14;;;;;;;1.80;1.15;;;20.40;99.90;;;;;;2585721;54;20030;31
2023/09/04 07:50:48;;;;;;;3.30;1.13;;;20.50;99.90;;;;;;2586072;54;20860;31
2023/09/04 07:53:24;;;;;;;4.32;1.20;;;20.60;99.90;;;;;;2586273;54;20034;31
2023/09/04 07:56:04;;;;;;;1.60;0.83;;;20.50;99.90;;;;;;2604178;46;20030;31
2023/09/04 07:58:41;;;;;;;3.05;1.02;;;20.50;99.90;;;;;;2603668;46;20837;31
2023/09/04 08:01:17;;;;;;;2.60;1.10;;;20.50;99.90;;;;;;2604034;46;20766;31
2023/09/04 08:03:52;;;;;;;2.27;1.20;;;20.40;99.90;;;;;;2585793;54;20098;31
2023/09/04 08:06:28;;;;;;;1.60;0.90;;;20.50;99.90;;;;;;2585060;54;21134;31
2023/09/04 08:09:06;;;;;;;3.00;1.20;;;20.70;99.90;;;;;;2585130;54;22373;31
2023/09/04 08:11:45;;;;;;;2.80;1.20;;;20.90;99.90;;;;;;2603311;46;20933;31
2023/09/04 08:14:26;;;;;;;2.00;1.05;;;21.10;99.90;;;;;;2585895;54;20026;31
2023/09/04 08:17:00;;;;;;;3.15;1.50;;;21.40;99.90;;;;;;2585677;54;20042;31
2023/09/04 08:19:33;;;;;;;3.35;1.00;;;21.50;99.90;;;;;;2585647;54;20800;31
2023/09/04 08:22:10;;;;;;;2.20;1.20;;;21.60;99.90;;;;;;2586079;54;20053;31
2023/09/04 08:24:48;;;;;;;2.97;1.07;;;21.50;99.90;;;;;;2594206;46;20976;31
2023/09/04 08:27:26;;;;;;;2.90;0.70;;;21.70;99.90;;;;;;2585359;54;20035;31
2023/09/04 08:30:01;;;;;;;1.60;0.85;;;22.00;99.90;;;;;;2586041;54;20027;31
2023/09/04 08:32:39;;;;;;;1.43;0.80;;;22.20;99.90;;;;;;2604639;46;20874;31
2023/09/04 08:35:15;;;;;;;1.00;0.50;;;22.30;99.90;;;;;;2586193;54;20057;31
2023/09/04 08:37:49;;;;;;;2.25;0.85;;;22.40;99.90;;;;;;2586027;54;20893;31
2023/09/04 08:40:27;;;;;;;2.50;0.98;;;22.40;99.90;;;;;;2586195;54;20026;31
2023/09/04 08:43:04;;;;;;;2.00;0.75;;;22.40;99.90;;;;;;2604709;46;20023;31
2023/09/04 08:45:39;;;;;;;1.90;0.90;;;22.40;99.90;;;;;;2586041;54;20036;31
2023/09/04 08:48:13;;;;;;;1.23;0.60;;;22.40;99.90;;;;;;2585880;54;20896;31
2023/09/04 08:50:47;;;;;;;1.98;0.80;;;22.40;99.90;;;;;;2604707;46;20063;31
2023/09/04 08:53:21;;;;;;;2.83;0.80;;;22.40;99.90;;;;;;2584914;54;20030;31
2023/09/04 08:55:59;;;;;;;2.55;0.75;;;22.40;99.90;;;;;;2585810;54;20982;31
2023/09/04 08:58:35;;;;;;;3.60;0.80;;;22.40;99.90;;;;;;2585908;54;20031;31
2023/09/04 09:01:10;;;;;;;1.33;0.70;;;22.50;99.90;;;;;;2596386;46;20869;31
2023/09/04 09:03:46;;;;;;;1.65;0.60;;;22.80;99.90;;;;;;2604527;46;20057;31
2023/09/04 09:06:25;;;;;;;1.48;0.73;;;23.10;99.90;;;;;;2585777;54;20030;31
2023/09/04 09:09:01;;;;;;;2.80;0.70;;;23.40;99.90;;;;;;2586054;54;20034;31
2023/09/04 09:11:38;;;;;;;3.15;0.60;;;23.60;99.90;;;;;;2586096;54;20026;31
2023/09/04 09:14:15;;;;;;;1.73;0.75;;;23.70;99.90;;;;;;2600205;46;20927;31
2023/09/04 09:16:49;;;;;;;2.73;0.83;;;23.60;99.90;;;;;;2585907;54;20085;31
2023/09/04 09:19:24;;;;;;;1.17;0.52;;;23.60;99.90;;;;;;2604445;46;20857;31
2023/09/04 09:21:57;;;;;;;;;;;24.00;99.90;;;;;;2585211;54;20026;31
2023/09/04 09:24:33;;;;;;;1.67;0.70;;;24.40;99.90;;;;;;2585851;54;20837;31
2023/09/04 09:27:06;;;;;;;1.40;0.88;;;24.60;99.90;;;;;;2585592;54;20026;31
2023/09/04 09:29:42;;;;;;;1.95;0.65;;;24.70;99.90;;;;;;2585665;54;19997;31
2023/09/04 09:32:16;;;;;;;4.95;0.57;;;24.70;99.90;;;;;;2604522;46;20026;31
2023/09/04 09:34:53;;;;;;;1.20;0.55;;;24.70;99.90;;;;;;2586079;54;20053;31
2023/09/04 09:37:27;;;;;;;3.22;0.75;;;24.80;99.90;;;;;;2585970;54;20030;31
2023/09/04 09:40:04;;;;;;;1.25;0.50;;;24.80;99.90;;;;;;2586000;54;20022;31
2023/09/04 09:42:40;;;;;;;3.20;0.60;;;24.80;99.90;;;;;;2604085;46;20793;31
2023/09/04 09:45:21;;;;;;;1.90;0.82;;;24.80;99.90;;;;;;2585891;54;20065;31
2023/09/04 09:47:55;;;;;;;3.00;0.55;;;25.00;99.90;;;;;;2604660;47;20903;31
2023/09/04 09:50:29;;;;;;;1.55;0.70;;;25.20;99.90;;;;;;2585624;54;20923;31
2023/09/04 09:53:03;;;;;;;1.93;0.50;;;25.20;99.90;;;;;;2585927;54;20026;31
2023/09/04 09:55:38;;;;;;;2.77;0.50;;;25.00;99.90;;;;;;2585619;54;20361;31
2023/09/04 09:58:12;;;;;;;1.05;0.60;;;24.80;99.90;;;;;;2585745;54;20124;31
2023/09/04 10:00:50;;;;;;;1.50;0.60;;;24.60;99.90;;;;;;2586085;54;20916;31
2023/09/04 10:06:13;;;;;;;1.00;0.50;;;25.10;99.90;;;;;;2585836;54;21140;31
2023/09/04 10:08:53;;;;;;;0.98;0.60;;;25.30;99.90;;;;;;2585901;54;20934;31
2023/09/04 10:11:30;;;;;;;1.53;0.70;;;25.50;99.90;;;;;;2586229;54;20165;31
2023/09/04 10:14:08;;;;;;;2.70;0.67;;;25.70;99.90;;;;;;2586584;54;20782;31
2023/09/04 10:16:49;;;;;;;2.03;0.60;;;25.80;99.90;;;;;;2586608;54;20348;31
2023/09/04 10:19:25;;;;;;;0.70;0.30;;;26.00;99.90;;;;;;2586664;54;20052;31
2023/09/04 10:22:06;;;;;;;0.60;0.50;;;26.30;99.90;;;;;;2586661;54;20060;31
2023/09/04 10:24:49;;;;;;;1.30;0.68;;;26.40;99.90;;;;;;2586617;54;20032;31
2023/09/04 10:27:22;;;;;;;1.10;0.60;;;26.30;99.90;;;;;;2586067;54;20741;31
2023/09/04 10:29:57;;;;;;;1.30;0.70;;;26.00;99.90;;;;;;2586477;54;20022;31
2023/09/04 10:32:38;;;;;;;0.77;0.50;;;25.80;99.90;;;;;;2585552;54;20731;31
2023/09/04 10:35:13;;;;;;;1.10;0.70;;;25.60;99.90;;;;;;2585574;54;20034;31
2023/09/04 10:37:48;;;;;;;1.63;0.60;;;25.60;99.90;;;;;;2585589;54;20038;31
2023/09/04 10:40:22;;;;;;;1.90;0.90;;;25.50;99.90;;;;;;2586610;54;20030;31
2023/09/04 10:42:56;;;;;;;1.30;0.63;;;25.60;99.90;;;;;;2586359;54;20161;31
2023/09/04 10:45:28;;;;;;;2.08;0.60;;;25.70;99.90;;;;;;2586413;54;20337;31
2023/09/04 10:48:04;;;;;;;1.50;0.70;;;25.90;99.90;;;;;;2586389;54;20026;31
2023/09/04 10:50:38;;;;;;;1.30;0.70;;;25.80;99.90;;;;;;2586503;54;20022;31
2023/09/04 10:53:11;;;;;;;5.65;0.90;;;25.60;99.90;;;;;;2586295;54;20258;31
2023/09/04 10:55:44;;;;;;;1.55;0.75;;;25.60;99.90;;;;;;2586656;54;20079;31
2023/09/04 10:58:18;;;;;;;2.15;0.68;;;25.70;99.90;;;;;;2586470;54;20892;31
2023/09/04 11:00:53;;;;;;;1.63;0.97;;;25.70;99.90;;;;;;2586024;54;20048;31
2023/09/04 11:03:28;;;;;;;2.77;0.67;;;25.70;99.90;;;;;;2586437;54;20762;31
2023/09/04 11:06:20;;;;;;;1.15;0.65;;;25.80;99.90;;;;;;2586323;54;20043;31
2023/09/04 11:08:53;;;;;;;1.80;0.82;;;25.90;99.90;;;;;;2586437;54;20107;31
2023/09/04 11:11:29;;;;;;;2.37;0.80;;;25.80;99.90;;;;;;2604664;46;20047;31
2023/09/04 11:14:06;;;;;;;1.70;0.70;;;25.80;99.90;;;;;;2586426;54;20253;31
2023/09/04 11:16:41;;;;;;;1.65;0.90;;;25.60;99.90;;;;;;2604779;46;20920;31
2023/09/04 11:19:21;;;;;;;2.30;0.68;;;25.60;99.90;;;;;;2586598;54;20023;31
2023/09/04 11:21:53;;;;;;;4.03;0.82;;;25.60;99.90;;;;;;2586325;54;20867;31
2023/09/04 11:24:26;;;;;;;2.30;0.80;;;25.70;99.90;;;;;;2586289;54;20899;31
2023/09/04 11:27:01;;;;;;;1.20;0.50;;;25.60;99.90;;;;;;2586229;54;20242;31
2023/09/04 11:29:35;;;;;;;1.07;0.60;;;25.40;99.90;;;;;;2605258;46;20875;31
2023/09/04 11:32:11;;;;;;;2.05;0.68;;;25.10;99.90;;;;;;2586581;54;20242;31
2023/09/04 11:34:48;;;;;;;1.77;0.60;;;25.00;99.90;;;;;;2585967;54;20884;31
2023/09/04 11:37:20;;;;;;;1.63;0.63;;;24.80;99.90;;;;;;2586335;54;20030;31
2023/09/04 11:39:55;;;;;;;1.80;0.90;;;24.90;99.90;;;;;;2586141;54;21018;31
2023/09/04 11:42:37;;;;;;;2.28;0.63;;;25.00;99.90;;;;;;2604827;46;20081;31
2023/09/04 11:45:09;;;;;;;;;;;25.20;99.90;;;;;;2586209;54;20057;31
2023/09/04 11:47:43;;;;;;;1.58;0.80;;;25.30;99.90;;;;;;2604649;46;20420;31
2023/09/04 11:50:21;;;;;;;1.33;0.50;;;25.40;99.90;;;;;;2585967;54;20934;31
2023/09/04 11:52:56;;;;;;;1.40;0.70;;;25.30;99.90;;;;;;2586137;54;20859;31
2023/09/04 11:55:35;;;;;;;1.95;0.70;;;25.20;99.90;;;;;;2586232;54;20497;31
2023/09/04 11:58:08;;;;;;;0.77;0.45;;;25.10;99.90;;;;;;2586346;54;20759;31
2023/09/04 12:00:42;;;;;;;0.87;0.53;;;25.10;99.90;;;;;;2586124;54;20919;31
2023/09/04 12:03:17;;;;;;;1.75;0.65;;;25.10;99.90;;;;;;2586262;54;20535;31
2023/09/04 12:05:54;;;;;;;1.55;0.73;;;25.10;99.90;;;;;;2586263;54;20108;31
2023/09/04 12:08:27;;;;;;;1.52;0.70;;;25.20;99.90;;;;;;2586219;54;20030;31
2023/09/04 12:11:00;;;;;;;1.77;0.60;;;25.20;99.90;;;;;;2586284;54;20875;31
2023/09/04 12:13:36;;;;;;;1.10;0.57;;;25.30;99.90;;;;;;2604578;46;21406;31
2023/09/04 12:16:09;;;;;;;2.05;0.70;;;25.40;99.90;;;;;;2586463;54;20926;31
2023/09/04 12:18:43;;;;;;;0.75;0.50;;;25.40;99.90;;;;;;2586223;54;20034;31
2023/09/04 12:21:19;;;;;;;1.05;0.63;;;25.30;99.90;;;;;;2585995;54;20509;31
2023/09/04 12:23:54;;;;;;;1.00;0.40;;;25.20;99.90;;;;;;2586219;54;20034;31
2023/09/04 12:26:27;;;;;;;3.00;0.75;;;25.10;99.90;;;;;;2604473;46;20125;31
2023/09/04 12:28:59;;;;;;;1.35;0.50;;;25.00;99.90;;;;;;2585890;54;20033;31
2023/09/04 12:31:36;;;;;;;2.05;0.63;;;24.90;99.90;;;;;;2585575;54;20062;31
2023/09/04 12:34:10;;;;;;;2.83;0.60;;;25.00;99.90;;;;;;2586104;54;20860;31
2023/09/04 12:36:48;;;;;;;1.13;0.50;;;25.00;99.90;;;;;;2585957;54;20145;31
2023/09/04 12:39:21;;;;;;;1.58;0.65;;;25.10;99.90;;;;;;2586204;54;20867;31
2023/09/04 12:42:03;;;;;;;1.13;0.52;;;25.10;99.90;;;;;;2586113;54;20121;31
2023/09/04 12:44:40;;;;;;;0.87;0.43;;;25.10;99.90;;;;;;2683276;39;22301;31
2023/09/04 12:47:16;;;;;;;1.35;0.63;;;25.00;99.90;;;;;;2604410;46;20027;31
2023/09/04 12:49:52;;;;;;;1.42;0.70;;;25.00;99.90;;;;;;2586032;54;20027;31
2023/09/04 12:52:33;;;;;;;3.13;0.70;;;24.90;99.90;;;;;;2586009;54;20034;31
2023/09/04 12:55:11;;;;;;;1.00;0.60;;;24.90;99.90;;;;;;2585709;54;20108;31
2023/09/04 12:57:49;;;;;;;1.30;0.68;;;24.80;99.90;;;;;;2585705;54;20832;31
2023/09/04 13:00:27;;;;;;;1.85;0.70;;;24.80;99.90;;;;;;2586134;54;20941;31
2023/09/04 13:03:04;;;;;;;1.35;0.60;;;24.80;99.90;;;;;;2585919;54;21342;31
2023/09/04 13:05:37;;;;;;;1.70;0.88;;;24.80;99.90;;;;;;2586192;54;20766;31
2023/09/04 13:08:16;;;;;;;2.00;0.70;;;24.70;99.90;;;;;;2604521;46;20026;31
2023/09/04 13:10:52;;;;;;;1.95;0.60;;;24.60;99.90;;;;;;2592630;46;20947;31
2023/09/04 13:13:35;;;;;;;2.83;0.60;;;24.60;99.90;;;;;;2753747;31;21447;31
2023/09/04 13:16:08;;;;;;;2.38;0.70;;;24.50;99.90;;;;;;2586094;54;20793;31
2023/09/04 13:18:41;;;;;;;1.50;0.75;;;24.30;99.90;;;;;;2604609;46;20916;31
2023/09/04 13:21:18;;;;;;;2.83;0.82;;;24.30;99.90;;;;;;2586206;54;20974;31
2023/09/04 13:24:01;;;;;;;2.00;0.60;;;24.30;99.90;;;;;;2585751;54;20022;31
2023/09/04 13:29:28;;;;;;;1.33;0.50;;;24.30;99.90;;;;;;2585718;54;20027;31
2023/09/04 13:32:05;;;;;;;1.80;0.93;;;24.40;99.90;;;;;;2604360;46;20046;31
2023/09/04 13:34:40;;;;;;;1.25;0.50;;;24.50;99.90;;;;;;2586048;54;20077;31
2023/09/04 13:37:12;;;;;;;2.17;0.53;;;24.60;99.90;;;;;;2585846;54;20027;31
2023/09/04 13:39:50;;;;;;;1.75;0.60;;;24.70;99.90;;;;;;2585888;54;20026;31
2023/09/04 13:42:25;;;;;;;2.08;0.80;;;24.70;99.90;;;;;;2604397;46;20894;31
2023/09/04 13:45:03;;;;;;;2.47;0.57;;;24.60;99.90;;;;;;2585487;54;20113;31
2023/09/04 13:47:37;;;;;;;1.92;0.90;;;24.50;99.90;;;;;;2585569;54;20266;31
2023/09/04 13:50:14;;;;;;;1.05;0.63;;;24.40;99.90;;;;;;2585475;54;20057;31
2023/09/04 13:52:47;;;;;;;1.52;0.60;;;24.40;99.90;;;;;;2586051;54;20762;31